sensor_id;sensor_type;location;lat;lon;timestamp;pressure;altitude;pressure_sealevel;temperature;humidity
42761;BME280;31672;47.638;19.026;2024-03-23T00:53:22;99836.84;;;5.36;100.00
42761;BME280;31672;47.638;19.026;2024-03-23T00:58:24;99830.34;;;5.31;100.00
42761;BME280;31672;47.638;19.026;2024-03-23T01:03:26;99825.94;;;5.22;100.00
42761;BME280;31672;47.638;19.026;2024-03-23T01:08:28;99816.09;;;5.14;100.00
42761;BME280;31672;47.638;19.026;2024-03-23T01:13:31;99810.56;;;5.07;100.00
42761;BME280;31672;47.638;19.026;2024-03-23T01:18:34;99809.47;;;5.00;100.00
42761;BME280;31672;47.638;19.026;2024-03-23T01:23:36;99809.75;;;4.97;100.00
42761;BME280;31672;47.638;19.026;2024-03-23T01:28:38;99809.38;;;4.92;100.00
42761;BME280;31672;47.638;19.026;2024-03-23T01:33:41;99800.50;;;4.93;100.00
42761;BME280;31672;47.638;19.026;2024-03-23T01:38:43;99788.97;;;4.94;100.00
42761;BME280;31672;47.638;19.026;2024-03-23T01:43:45;99781.91;;;4.95;100.00
42761;BME280;31672;47.638;19.026;2024-03-23T01:48:49;99783.03;;;4.92;100.00
42761;BME280;31672;47.638;19.026;2024-03-23T01:53:53;99788.56;;;4.89;100.00
42761;BME280;31672;47.638;19.026;2024-03-23T01:58:56;99784.84;;;4.82;100.00
42761;BME280;31672;47.638;19.026;2024-03-23T02:03:58;99772.41;;;4.74;100.00
42761;BME280;31672;47.638;19.026;2024-03-23T02:09:01;99771.56;;;4.74;100.00
42761;BME280;31672;47.638;19.026;2024-03-23T02:14:03;99764.91;;;4.70;100.00
42761;BME280;31672;47.638;19.026;2024-03-23T02:19:05;99756.75;;;4.63;100.00
42761;BME280;31672;47.638;19.026;2024-03-23T02:24:08;99758.56;;;4.63;100.00
42761;BME280;31672;47.638;19.026;2024-03-23T02:29:10;99738.59;;;4.60;100.00
42761;BME280;31672;47.638;19.026;2024-03-23T02:34:12;99742.34;;;4.57;100.00
42761;BME280;31672;47.638;19.026;2024-03-23T02:39:15;99743.03;;;4.60;100.00
42761;BME280;31672;47.638;19.026;2024-03-23T02:44:17;99735.13;;;4.60;100.00
42761;BME280;31672;47.638;19.026;2024-03-23T02:49:19;99728.38;;;4.57;100.00
42761;BME280;31672;47.638;19.026;2024-03-23T02:54:23;99724.06;;;4.56;100.00
42761;BME280;31672;47.638;19.026;2024-03-23T02:59:25;99710.22;;;4.54;100.00
42761;BME280;31672;47.638;19.026;2024-03-23T03:04:28;99711.03;;;4.54;100.00
42761;BME280;31672;47.638;19.026;2024-03-23T03:09:30;99712.44;;;4.59;100.00
42761;BME280;31672;47.638;19.026;2024-03-23T03:14:36;99710.63;;;4.59;100.00
42761;BME280;31672;47.638;19.026;2024-03-23T03:19:38;99702.47;;;4.62;100.00
42761;BME280;31672;47.638;19.026;2024-03-23T03:24:40;99710.88;;;4.66;100.00
42761;BME280;31672;47.638;19.026;2024-03-23T03:29:43;99706.44;;;4.66;100.00
42761;BME280;31672;47.638;19.026;2024-03-23T03:34:46;99699.38;;;4.67;100.00
42761;BME280;31672;47.638;19.026;2024-03-23T03:39:48;99694.00;;;4.68;100.00
42761;BME280;31672;47.638;19.026;2024-03-23T03:44:51;99693.03;;;4.69;100.00
42761;BME280;31672;47.638;19.026;2024-03-23T03:49:54;99694.38;;;4.73;100.00
42761;BME280;31672;47.638;19.026;2024-03-23T03:55:02;99690.34;;;4.79;100.00
42761;BME280;31672;47.638;19.026;2024-03-23T04:00:06;99692.28;;;4.87;100.00
42761;BME280;31672;47.638;19.026;2024-03-23T04:05:08;99679.78;;;4.89;100.00
42761;BME280;31672;47.638;19.026;2024-03-23T04:10:10;99663.69;;;4.92;100.00
42761;BME280;31672;47.638;19.026;2024-03-23T04:15:13;99666.78;;;4.87;100.00
42761;BME280;31672;47.638;19.026;2024-03-23T04:20:16;99672.03;;;4.87;100.00
42761;BME280;31672;47.638;19.026;2024-03-23T04:25:19;99678.28;;;4.86;100.00
42761;BME280;31672;47.638;19.026;2024-03-23T04:30:22;99682.44;;;4.79;100.00
42761;BME280;31672;47.638;19.026;2024-03-23T04:35:27;99679.69;;;4.80;100.00
42761;BME280;31672;47.638;19.026;2024-03-23T04:40:29;99674.69;;;4.87;100.00
42761;BME280;31672;47.638;19.026;2024-03-23T04:45:32;99669.50;;;4.95;100.00
42761;BME280;31672;47.638;19.026;2024-03-23T04:50:35;99664.34;;;5.03;100.00
42761;BME280;31672;47.638;19.026;2024-03-23T04:55:37;99659.19;;;5.12;100.00
42761;BME280;31672;47.638;19.026;2024-03-23T05:00:40;99646.81;;;5.22;100.00
42761;BME280;31672;47.638;19.026;2024-03-23T05:05:42;99650.34;;;5.30;100.00
42761;BME280;31672;47.638;19.026;2024-03-23T05:10:45;99650.66;;;5.45;100.00
42761;BME280;31672;47.638;19.026;2024-03-23T05:15:55;99643.53;;;5.55;100.00
42761;BME280;31672;47.638;19.026;2024-03-23T05:20:58;99643.31;;;5.67;100.00
42761;BME280;31672;47.638;19.026;2024-03-23T05:26:01;99641.13;;;5.80;100.00
42761;BME280;31672;47.638;19.026;2024-03-23T05:31:03;99640.25;;;5.89;100.00
42761;BME280;31672;47.638;19.026;2024-03-23T05:36:06;99639.72;;;6.03;100.00
42761;BME280;31672;47.638;19.026;2024-03-23T05:41:11;99625.97;;;6.17;100.00
42761;BME280;31672;47.638;19.026;2024-03-23T05:46:13;99638.47;;;6.33;100.00
42761;BME280;31672;47.638;19.026;2024-03-23T05:51:15;99637.91;;;6.48;100.00
42761;BME280;31672;47.638;19.026;2024-03-23T05:56:20;99622.34;;;6.62;100.00
42761;BME280;31672;47.638;19.026;2024-03-23T06:01:22;99622.78;;;6.84;100.00
42761;BME280;31672;47.638;19.026;2024-03-23T06:06:24;99615.59;;;7.02;100.00
42761;BME280;31672;47.638;19.026;2024-03-23T06:11:26;99599.13;;;7.24;100.00
42761;BME280;31672;47.638;19.026;2024-03-23T06:16:29;99606.47;;;7.47;100.00
42761;BME280;31672;47.638;19.026;2024-03-23T06:21:33;99607.34;;;7.64;100.00
42761;BME280;31672;47.638;19.026;2024-03-23T06:26:36;99595.09;;;7.79;100.00
42761;BME280;31672;47.638;19.026;2024-03-23T06:31:38;99585.19;;;7.97;100.00
42761;BME280;31672;47.638;19.026;2024-03-23T06:36:41;99592.28;;;8.13;100.00
42761;BME280;31672;47.638;19.026;2024-03-23T06:41:53;99596.59;;;8.39;100.00
42761;BME280;31672;47.638;19.026;2024-03-23T06:46:58;99586.09;;;8.70;100.00
42761;BME280;31672;47.638;19.026;2024-03-23T06:52:00;99573.91;;;9.00;100.00
42761;BME280;31672;47.638;19.026;2024-03-23T06:57:03;99561.16;;;9.26;100.00
42761;BME280;31672;47.638;19.026;2024-03-23T07:02:06;99560.81;;;9.52;98.87
42761;BME280;31672;47.638;19.026;2024-03-23T07:07:10;99561.69;;;9.90;98.69
42761;BME280;31672;47.638;19.026;2024-03-23T07:12:13;99554.38;;;10.30;96.99
42761;BME280;31672;47.638;19.026;2024-03-23T07:17:16;99546.84;;;10.78;94.10
42761;BME280;31672;47.638;19.026;2024-03-23T07:22:20;99536.97;;;11.23;91.82
42761;BME280;31672;47.638;19.026;2024-03-23T07:27:22;99522.91;;;11.50;88.25
42761;BME280;31672;47.638;19.026;2024-03-23T07:32:26;99509.31;;;11.60;86.14
42761;BME280;31672;47.638;19.026;2024-03-23T07:37:29;99504.91;;;11.74;84.65
42761;BME280;31672;47.638;19.026;2024-03-23T07:42:31;99500.66;;;11.79;84.48
42761;BME280;31672;47.638;19.026;2024-03-23T07:47:34;99498.13;;;11.93;83.97
42761;BME280;31672;47.638;19.026;2024-03-23T07:52:36;99492.50;;;12.09;83.03
42761;BME280;31672;47.638;19.026;2024-03-23T07:57:38;99496.31;;;12.28;81.98
42761;BME280;31672;47.638;19.026;2024-03-23T08:02:42;99485.34;;;12.44;80.33
42761;BME280;31672;47.638;19.026;2024-03-23T08:07:44;99480.47;;;12.54;79.35
42761;BME280;31672;47.638;19.026;2024-03-23T08:12:46;99473.53;;;12.60;77.13
42761;BME280;31672;47.638;19.026;2024-03-23T08:17:50;99462.09;;;12.73;76.69
42761;BME280;31672;47.638;19.026;2024-03-23T08:22:52;99457.25;;;12.90;75.36
42761;BME280;31672;47.638;19.026;2024-03-23T08:27:54;99457.69;;;13.13;75.68
42761;BME280;31672;47.638;19.026;2024-03-23T08:32:57;99448.34;;;13.50;75.08
42761;BME280;31672;47.638;19.026;2024-03-23T08:37:59;99445.03;;;13.81;71.82
42761;BME280;31672;47.638;19.026;2024-03-23T08:43:01;99441.72;;;13.99;70.38
42761;BME280;31672;47.638;19.026;2024-03-23T08:48:04;99439.63;;;14.14;69.53
42761;BME280;31672;47.638;19.026;2024-03-23T08:53:06;99430.53;;;14.35;69.02
42761;BME280;31672;47.638;19.026;2024-03-23T08:58:08;99423.19;;;14.76;69.23
42761;BME280;31672;47.638;19.026;2024-03-23T09:03:11;99412.66;;;15.69;66.08
42761;BME280;31672;47.638;19.026;2024-03-23T09:08:14;99393.88;;;16.12;62.26
42761;BME280;31672;47.638;19.026;2024-03-23T09:13:16;99383.81;;;16.44;58.95
42761;BME280;31672;47.638;19.026;2024-03-23T09:18:19;99374.97;;;17.04;59.40
42761;BME280;31672;47.638;19.026;2024-03-23T09:23:21;99368.50;;;17.47;57.50
42761;BME280;31672;47.638;19.026;2024-03-23T09:28:24;99357.53;;;17.83;57.03
42761;BME280;31672;47.638;19.026;2024-03-23T09:33:26;99337.13;;;18.11;55.01
42761;BME280;31672;47.638;19.026;2024-03-23T09:38:28;99338.00;;;18.68;54.85
42761;BME280;31672;47.638;19.026;2024-03-23T09:43:31;99341.50;;;19.31;51.89
42761;BME280;31672;47.638;19.026;2024-03-23T09:48:33;99334.63;;;19.40;50.82
42761;BME280;31672;47.638;19.026;2024-03-23T09:53:37;99317.00;;;19.33;50.32
42761;BME280;31672;47.638;19.026;2024-03-23T09:58:39;99298.69;;;19.51;47.96
42761;BME280;31672;47.638;19.026;2024-03-23T10:03:46;99290.78;;;19.84;48.51
42761;BME280;31672;47.638;19.026;2024-03-23T10:08:49;99272.75;;;20.06;47.81
42761;BME280;31672;47.638;19.026;2024-03-23T10:13:51;99270.50;;;19.98;47.94
42761;BME280;31672;47.638;19.026;2024-03-23T10:18:54;99248.72;;;20.04;47.55
42761;BME280;31672;47.638;19.026;2024-03-23T10:23:57;99245.78;;;20.06;47.21
42761;BME280;31672;47.638;19.026;2024-03-23T10:29:09;99240.06;;;20.02;42.77
42761;BME280;31672;47.638;19.026;2024-03-23T10:34:14;99239.22;;;20.24;43.10
42761;BME280;31672;47.638;19.026;2024-03-23T10:39:17;99225.31;;;20.37;42.69
42761;BME280;31672;47.638;19.026;2024-03-23T10:44:19;99218.78;;;20.33;42.05
42761;BME280;31672;47.638;19.026;2024-03-23T10:49:22;99206.16;;;20.34;42.08
42761;BME280;31672;47.638;19.026;2024-03-23T10:54:25;99194.69;;;20.48;42.64
42761;BME280;31672;47.638;19.026;2024-03-23T10:59:30;99193.31;;;20.78;41.56
42761;BME280;31672;47.638;19.026;2024-03-23T11:04:35;99175.78;;;21.28;39.87
42761;BME280;31672;47.638;19.026;2024-03-23T11:09:39;99166.28;;;21.73;40.02
42761;BME280;31672;47.638;19.026;2024-03-23T11:14:42;99168.81;;;22.10;39.22
42761;BME280;31672;47.638;19.026;2024-03-23T11:19:44;99154.47;;;22.09;38.81
42761;BME280;31672;47.638;19.026;2024-03-23T11:24:50;99130.69;;;22.22;36.97
42761;BME280;31672;47.638;19.026;2024-03-23T11:29:52;99129.28;;;22.09;38.33
42761;BME280;31672;47.638;19.026;2024-03-23T11:34:55;99109.56;;;22.29;36.85
42761;BME280;31672;47.638;19.026;2024-03-23T11:39:57;99107.13;;;22.58;37.57
42761;BME280;31672;47.638;19.026;2024-03-23T11:45:08;99089.22;;;22.87;34.32
42761;BME280;31672;47.638;19.026;2024-03-23T11:50:19;99089.38;;;23.21;34.20
42761;BME280;31672;47.638;19.026;2024-03-23T11:55:22;99066.91;;;23.16;33.31
42761;BME280;31672;47.638;19.026;2024-03-23T12:00:26;99063.75;;;22.88;35.36
42761;BME280;31672;47.638;19.026;2024-03-23T12:05:29;99053.19;;;22.87;34.96
42761;BME280;31672;47.638;19.026;2024-03-23T12:10:32;99041.34;;;22.47;34.87
42761;BME280;31672;47.638;19.026;2024-03-23T12:15:34;99038.94;;;22.00;35.08
42761;BME280;31672;47.638;19.026;2024-03-23T12:20:38;99034.31;;;21.59;35.57
42761;BME280;31672;47.638;19.026;2024-03-23T12:25:40;99024.72;;;21.21;36.00
42761;BME280;31672;47.638;19.026;2024-03-23T12:30:44;99025.41;;;20.86;36.72
42761;BME280;31672;47.638;19.026;2024-03-23T12:35:50;99005.88;;;20.69;36.88
42761;BME280;31672;47.638;19.026;2024-03-23T12:40:53;99001.94;;;20.44;37.63
42761;BME280;31672;47.638;19.026;2024-03-23T12:45:56;98988.31;;;20.19;37.60
42761;BME280;31672;47.638;19.026;2024-03-23T12:50:59;98986.75;;;19.91;38.75
42761;BME280;31672;47.638;19.026;2024-03-23T12:56:02;98985.94;;;19.85;39.46
42761;BME280;31672;47.638;19.026;2024-03-23T13:01:05;98975.09;;;19.80;40.02
42761;BME280;31672;47.638;19.026;2024-03-23T13:06:08;98974.97;;;19.65;39.82
42761;BME280;31672;47.638;19.026;2024-03-23T13:11:11;98977.19;;;19.46;39.51
42761;BME280;31672;47.638;19.026;2024-03-23T13:16:13;98968.47;;;19.34;39.80
42761;BME280;31672;47.638;19.026;2024-03-23T13:21:15;98964.91;;;19.28;39.57
42761;BME280;31672;47.638;19.026;2024-03-23T13:26:18;98955.97;;;19.22;40.20
42761;BME280;31672;47.638;19.026;2024-03-23T13:31:21;98957.78;;;19.17;39.72
42761;BME280;31672;47.638;19.026;2024-03-23T13:36:23;98954.75;;;19.08;39.58
42761;BME280;31672;47.638;19.026;2024-03-23T13:41:26;98946.34;;;19.05;39.58
42761;BME280;31672;47.638;19.026;2024-03-23T13:46:29;98942.53;;;19.01;39.74
42761;BME280;31672;47.638;19.026;2024-03-23T13:51:32;98929.53;;;18.92;39.85
42761;BME280;31672;47.638;19.026;2024-03-23T13:56:34;98931.06;;;18.83;39.50
42761;BME280;31672;47.638;19.026;2024-03-23T14:01:37;98936.88;;;18.75;40.06
42761;BME280;31672;47.638;19.026;2024-03-23T14:06:39;98922.63;;;18.75;40.16
42761;BME280;31672;47.638;19.026;2024-03-23T14:11:42;98925.03;;;18.76;40.01
42761;BME280;31672;47.638;19.026;2024-03-23T14:16:45;98923.69;;;18.74;40.18
42761;BME280;31672;47.638;19.026;2024-03-23T14:21:47;98909.81;;;18.65;40.03
42761;BME280;31672;47.638;19.026;2024-03-23T14:26:50;98899.03;;;18.60;40.02
42761;BME280;31672;47.638;19.026;2024-03-23T14:31:52;98897.88;;;18.56;40.47
42761;BME280;31672;47.638;19.026;2024-03-23T14:36:55;98892.38;;;18.45;40.59
42761;BME280;31672;47.638;19.026;2024-03-23T14:41:57;98887.50;;;18.42;40.88
42761;BME280;31672;47.638;19.026;2024-03-23T14:46:59;98888.31;;;18.43;41.62
42761;BME280;31672;47.638;19.026;2024-03-23T14:52:02;98892.38;;;18.45;41.63
42761;BME280;31672;47.638;19.026;2024-03-23T14:57:04;98888.63;;;18.46;41.33
42761;BME280;31672;47.638;19.026;2024-03-23T15:02:09;98894.00;;;18.46;41.82
42761;BME280;31672;47.638;19.026;2024-03-23T15:07:11;98891.28;;;18.41;41.49
42761;BME280;31672;47.638;19.026;2024-03-23T15:12:13;98886.38;;;18.38;41.41
42761;BME280;31672;47.638;19.026;2024-03-23T15:17:16;98878.25;;;18.33;41.50
42761;BME280;31672;47.638;19.026;2024-03-23T15:22:19;98872.69;;;18.18;40.88
42761;BME280;31672;47.638;19.026;2024-03-23T15:27:21;98883.84;;;18.10;41.60
42761;BME280;31672;47.638;19.026;2024-03-23T15:32:24;98881.59;;;18.02;41.50
42761;BME280;31672;47.638;19.026;2024-03-23T15:37:26;98880.47;;;17.98;41.56
42761;BME280;31672;47.638;19.026;2024-03-23T15:42:28;98882.44;;;17.85;41.88
42761;BME280;31672;47.638;19.026;2024-03-23T15:47:31;98884.03;;;17.81;42.08
42761;BME280;31672;47.638;19.026;2024-03-23T15:52:34;98881.25;;;17.76;42.19
42761;BME280;31672;47.638;19.026;2024-03-23T15:57:37;98886.72;;;17.81;42.38
42761;BME280;31672;47.638;19.026;2024-03-23T16:02:39;98883.44;;;17.79;41.66
42761;BME280;31672;47.638;19.026;2024-03-23T16:07:42;98893.53;;;17.72;41.73
42761;BME280;31672;47.638;19.026;2024-03-23T16:12:45;98878.84;;;17.63;42.12
42761;BME280;31672;47.638;19.026;2024-03-23T16:17:49;98880.91;;;17.56;42.17
42761;BME280;31672;47.638;19.026;2024-03-23T16:22:52;98874.34;;;17.47;42.15
42761;BME280;31672;47.638;19.026;2024-03-23T16:27:54;98881.66;;;17.34;42.28
42761;BME280;31672;47.638;19.026;2024-03-23T16:32:56;98873.75;;;17.28;42.70
42761;BME280;31672;47.638;19.026;2024-03-23T16:38:00;98871.72;;;17.18;42.53
42761;BME280;31672;47.638;19.026;2024-03-23T16:43:02;98859.16;;;17.07;43.33
42761;BME280;31672;47.638;19.026;2024-03-23T16:48:05;98852.50;;;16.93;43.36
42761;BME280;31672;47.638;19.026;2024-03-23T16:53:07;98914.16;;;16.64;45.54
42761;BME280;31672;47.638;19.026;2024-03-23T16:58:11;98940.38;;;16.10;46.88
42761;BME280;31672;47.638;19.026;2024-03-23T17:03:13;98958.13;;;15.46;48.01
42761;BME280;31672;47.638;19.026;2024-03-23T17:08:16;98982.88;;;14.81;49.16
42761;BME280;31672;47.638;19.026;2024-03-23T17:13:19;99007.59;;;14.22;50.21
42761;BME280;31672;47.638;19.026;2024-03-23T17:18:21;99032.66;;;13.71;51.75
42761;BME280;31672;47.638;19.026;2024-03-23T17:23:28;99041.75;;;13.25;54.13
42761;BME280;31672;47.638;19.026;2024-03-23T17:28:32;99052.78;;;12.83;56.93
42761;BME280;31672;47.638;19.026;2024-03-23T17:33:34;99047.53;;;12.50;58.14
42761;BME280;31672;47.638;19.026;2024-03-23T17:38:37;99042.25;;;12.24;59.47
42761;BME280;31672;47.638;19.026;2024-03-23T17:43:40;99042.47;;;11.96;62.01
42761;BME280;31672;47.638;19.026;2024-03-23T17:48:43;99036.25;;;11.69;63.80
42761;BME280;31672;47.638;19.026;2024-03-23T17:53:45;99074.94;;;11.51;67.20
42761;BME280;31672;47.638;19.026;2024-03-23T17:58:50;99058.53;;;11.35;70.04
42761;BME280;31672;47.638;19.026;2024-03-23T18:03:53;99092.84;;;11.23;72.40
42761;BME280;31672;47.638;19.026;2024-03-23T18:08:55;99085.81;;;11.09;74.92
42761;BME280;31672;47.638;19.026;2024-03-23T18:13:57;99092.09;;;10.94;75.23
42761;BME280;31672;47.638;19.026;2024-03-23T18:19:02;99103.25;;;10.77;74.72
42761;BME280;31672;47.638;19.026;2024-03-23T18:24:04;99092.53;;;10.57;70.87
42761;BME280;31672;47.638;19.026;2024-03-23T18:29:08;99115.28;;;10.38;67.89
42761;BME280;31672;47.638;19.026;2024-03-23T18:34:10;99100.78;;;10.19;66.52
42761;BME280;31672;47.638;19.026;2024-03-23T18:39:12;99114.34;;;10.03;63.76
42761;BME280;31672;47.638;19.026;2024-03-23T18:44:16;99100.91;;;9.89;63.95
42761;BME280;31672;47.638;19.026;2024-03-23T18:49:19;99098.88;;;9.85;64.47
42761;BME280;31672;47.638;19.026;2024-03-23T18:54:21;99108.75;;;9.76;65.00
42761;BME280;31672;47.638;19.026;2024-03-23T18:59:24;99102.31;;;9.64;66.35
42761;BME280;31672;47.638;19.026;2024-03-23T19:04:27;99093.59;;;9.49;68.70
42761;BME280;31672;47.638;19.026;2024-03-23T19:09:29;99094.44;;;9.34;69.99
42761;BME280;31672;47.638;19.026;2024-03-23T19:14:32;99104.72;;;9.23;71.46
42761;BME280;31672;47.638;19.026;2024-03-23T19:19:35;99095.66;;;9.17;73.39
42761;BME280;31672;47.638;19.026;2024-03-23T19:24:37;99102.91;;;9.08;74.99
42761;BME280;31672;47.638;19.026;2024-03-23T19:29:39;99119.09;;;8.99;77.40
42761;BME280;31672;47.638;19.026;2024-03-23T19:34:42;99126.31;;;8.90;81.13
42761;BME280;31672;47.638;19.026;2024-03-23T19:39:45;99135.63;;;8.71;82.67
42761;BME280;31672;47.638;19.026;2024-03-23T19:44:48;99133.97;;;8.55;84.15
42761;BME280;31672;47.638;19.026;2024-03-23T19:49:51;99159.75;;;8.39;85.11
42761;BME280;31672;47.638;19.026;2024-03-23T19:54:53;99165.19;;;8.22;87.40
42761;BME280;31672;47.638;19.026;2024-03-23T19:59:55;99194.09;;;8.01;91.21
42761;BME280;31672;47.638;19.026;2024-03-23T20:04:58;99191.25;;;7.79;93.95
42761;BME280;31672;47.638;19.026;2024-03-23T20:10:02;99218.81;;;7.54;97.12
42761;BME280;31672;47.638;19.026;2024-03-23T20:15:05;99209.69;;;7.25;97.86
42761;BME280;31672;47.638;19.026;2024-03-23T20:20:10;99225.28;;;7.04;99.92
42761;BME280;31672;47.638;19.026;2024-03-23T20:25:13;99240.81;;;6.83;100.00
42761;BME280;31672;47.638;19.026;2024-03-23T20:30:15;99201.91;;;6.68;100.00
42761;BME280;31672;47.638;19.026;2024-03-23T20:35:19;99198.47;;;6.60;100.00
42761;BME280;31672;47.638;19.026;2024-03-23T20:40:21;99226.00;;;6.57;100.00
42761;BME280;31672;47.638;19.026;2024-03-23T20:45:24;99206.88;;;6.55;100.00
42761;BME280;31672;47.638;19.026;2024-03-23T20:50:26;99226.34;;;6.54;100.00
42761;BME280;31672;47.638;19.026;2024-03-23T20:55:30;99218.56;;;6.53;100.00
42761;BME280;31672;47.638;19.026;2024-03-23T21:00:32;99213.97;;;6.55;100.00
42761;BME280;31672;47.638;19.026;2024-03-23T21:05:34;99187.38;;;6.64;100.00
42761;BME280;31672;47.638;19.026;2024-03-23T21:10:37;99205.06;;;6.72;97.70
42761;BME280;31672;47.638;19.026;2024-03-23T21:15:48;99212.63;;;6.75;97.69
42761;BME280;31672;47.638;19.026;2024-03-23T21:21:01;99206.03;;;6.79;95.50
42761;BME280;31672;47.638;19.026;2024-03-23T21:26:05;99173.31;;;6.88;93.13
42761;BME280;31672;47.638;19.026;2024-03-23T21:31:07;99194.44;;;6.96;91.13
42761;BME280;31672;47.638;19.026;2024-03-23T21:36:09;99184.16;;;7.02;89.73
42761;BME280;31672;47.638;19.026;2024-03-23T21:41:11;99186.31;;;7.06;87.14
42761;BME280;31672;47.638;19.026;2024-03-23T21:46:14;99178.53;;;7.13;84.17
42761;BME280;31672;47.638;19.026;2024-03-23T21:51:16;99174.69;;;7.23;82.62
42761;BME280;31672;47.638;19.026;2024-03-23T21:56:19;99172.19;;;7.30;80.22
42761;BME280;31672;47.638;19.026;2024-03-23T22:01:21;99167.69;;;7.39;77.21
42761;BME280;31672;47.638;19.026;2024-03-23T22:06:24;99192.44;;;7.46;76.47
42761;BME280;31672;47.638;19.026;2024-03-23T22:11:26;99202.97;;;7.54;76.23
42761;BME280;31672;47.638;19.026;2024-03-23T22:16:29;99191.25;;;7.57;75.56
42761;BME280;31672;47.638;19.026;2024-03-23T22:21:31;99206.56;;;7.61;75.75
42761;BME280;31672;47.638;19.026;2024-03-23T22:26:35;99218.75;;;7.70;76.30
42761;BME280;31672;47.638;19.026;2024-03-23T22:31:37;99222.53;;;7.76;77.74
42761;BME280;31672;47.638;19.026;2024-03-23T22:36:39;99243.00;;;7.82;78.37
42761;BME280;31672;47.638;19.026;2024-03-23T22:41:43;99252.25;;;7.86;79.40
42761;BME280;31672;47.638;19.026;2024-03-23T22:46:45;99252.56;;;7.83;81.33
42761;BME280;31672;47.638;19.026;2024-03-23T22:51:47;99217.19;;;7.84;82.56
42761;BME280;31672;47.638;19.026;2024-03-23T22:56:50;99203.50;;;7.81;83.36
42761;BME280;31672;47.638;19.026;2024-03-23T23:01:52;99211.78;;;7.77;84.18
42761;BME280;31672;47.638;19.026;2024-03-23T23:06:54;99187.78;;;7.79;84.16
42761;BME280;31672;47.638;19.026;2024-03-23T23:11:57;99181.88;;;7.77;84.90
42761;BME280;31672;47.638;19.026;2024-03-23T23:17:00;99160.88;;;7.75;84.79
42761;BME280;31672;47.638;19.026;2024-03-23T23:22:04;99154.09;;;7.73;85.16
42761;BME280;31672;47.638;19.026;2024-03-23T23:27:06;99149.19;;;7.70;84.23
42761;BME280;31672;47.638;19.026;2024-03-23T23:32:08;99157.13;;;7.70;84.00
42761;BME280;31672;47.638;19.026;2024-03-23T23:37:12;99157.75;;;7.72;83.98
42761;BME280;31672;47.638;19.026;2024-03-23T23:42:14;99167.81;;;7.76;83.33
42761;BME280;31672;47.638;19.026;2024-03-23T23:47:17;99154.09;;;7.73;83.72
42761;BME280;31672;47.638;19.026;2024-03-23T23:52:20;99174.00;;;7.69;84.59
42761;BME280;31672;47.638;19.026;2024-03-23T23:57:22;99161.59;;;7.69;85.42
